sensor_id;sensor_type;location;lat;lon;timestamp;P1;durP1;ratioP1;P2;durP2;ratioP2
65244;SDS011;51846;48.692;2.382;2023-08-17T00:02:20;6.82;;;4.90;;
65244;SDS011;51846;48.692;2.382;2023-08-17T00:04:46;7.22;;;4.90;;
65244;SDS011;51846;48.692;2.382;2023-08-17T00:07:11;6.35;;;4.70;;
65244;SDS011;51846;48.692;2.382;2023-08-17T00:09:36;7.20;;;5.03;;
65244;SDS011;51846;48.692;2.382;2023-08-17T00:12:02;6.10;;;4.82;;
65244;SDS011;51846;48.692;2.382;2023-08-17T00:14:27;6.30;;;5.00;;
65244;SDS011;51846;48.692;2.382;2023-08-17T00:16:53;10.02;;;5.13;;
65244;SDS011;51846;48.692;2.382;2023-08-17T00:19:19;8.10;;;5.07;;
65244;SDS011;51846;48.692;2.382;2023-08-17T00:21:45;8.40;;;4.90;;
65244;SDS011;51846;48.692;2.382;2023-08-17T00:24:10;8.13;;;5.20;;
65244;SDS011;51846;48.692;2.382;2023-08-17T00:26:37;8.00;;;5.20;;
65244;SDS011;51846;48.692;2.382;2023-08-17T00:29:02;9.57;;;5.35;;
65244;SDS011;51846;48.692;2.382;2023-08-17T00:31:29;8.75;;;5.20;;
65244;SDS011;51846;48.692;2.382;2023-08-17T00:33:54;8.00;;;5.30;;
65244;SDS011;51846;48.692;2.382;2023-08-17T00:36:20;9.93;;;4.88;;
65244;SDS011;51846;48.692;2.382;2023-08-17T00:38:45;8.48;;;5.03;;
65244;SDS011;51846;48.692;2.382;2023-08-17T00:41:11;8.05;;;5.15;;
65244;SDS011;51846;48.692;2.382;2023-08-17T00:43:36;9.27;;;5.20;;
65244;SDS011;51846;48.692;2.382;2023-08-17T00:46:01;8.85;;;5.25;;
65244;SDS011;51846;48.692;2.382;2023-08-17T00:48:27;10.27;;;5.25;;
65244;SDS011;51846;48.692;2.382;2023-08-17T00:50:54;10.50;;;5.40;;
65244;SDS011;51846;48.692;2.382;2023-08-17T00:53:21;8.50;;;4.95;;
65244;SDS011;51846;48.692;2.382;2023-08-17T00:55:47;7.80;;;5.13;;
65244;SDS011;51846;48.692;2.382;2023-08-17T00:58:13;7.07;;;4.88;;
65244;SDS011;51846;48.692;2.382;2023-08-17T01:00:39;6.40;;;5.10;;
65244;SDS011;51846;48.692;2.382;2023-08-17T01:03:05;6.07;;;4.75;;
65244;SDS011;51846;48.692;2.382;2023-08-17T01:05:30;9.43;;;5.00;;
65244;SDS011;51846;48.692;2.382;2023-08-17T01:07:57;8.85;;;4.85;;
65244;SDS011;51846;48.692;2.382;2023-08-17T01:10:23;11.35;;;5.40;;
65244;SDS011;51846;48.692;2.382;2023-08-17T01:13:01;10.45;;;5.38;;
65244;SDS011;51846;48.692;2.382;2023-08-17T01:15:35;6.47;;;4.88;;
65244;SDS011;51846;48.692;2.382;2023-08-17T01:21:01;13.20;;;5.30;;
65244;SDS011;51846;48.692;2.382;2023-08-17T01:23:30;9.52;;;5.13;;
65244;SDS011;51846;48.692;2.382;2023-08-17T01:25:55;8.10;;;5.05;;
65244;SDS011;51846;48.692;2.382;2023-08-17T01:28:22;7.85;;;5.07;;
65244;SDS011;51846;48.692;2.382;2023-08-17T01:36:11;9.40;;;5.88;;
65244;SDS011;51846;48.692;2.382;2023-08-17T01:38:42;9.23;;;5.30;;
65244;SDS011;51846;48.692;2.382;2023-08-17T01:41:09;9.95;;;5.50;;
65244;SDS011;51846;48.692;2.382;2023-08-17T01:43:41;8.63;;;5.07;;
65244;SDS011;51846;48.692;2.382;2023-08-17T01:46:10;8.60;;;5.40;;
65244;SDS011;51846;48.692;2.382;2023-08-17T01:48:41;9.95;;;5.50;;
65244;SDS011;51846;48.692;2.382;2023-08-17T01:51:07;7.53;;;4.88;;
65244;SDS011;51846;48.692;2.382;2023-08-17T01:53:33;7.63;;;5.28;;
65244;SDS011;51846;48.692;2.382;2023-08-17T01:55:58;10.23;;;5.55;;
65244;SDS011;51846;48.692;2.382;2023-08-17T01:58:23;10.93;;;6.05;;
65244;SDS011;51846;48.692;2.382;2023-08-17T02:00:49;7.70;;;5.60;;
65244;SDS011;51846;48.692;2.382;2023-08-17T02:03:14;9.75;;;6.10;;
65244;SDS011;51846;48.692;2.382;2023-08-17T02:05:43;8.60;;;6.07;;
65244;SDS011;51846;48.692;2.382;2023-08-17T02:08:10;10.52;;;6.47;;
65244;SDS011;51846;48.692;2.382;2023-08-17T02:10:36;9.02;;;6.22;;
65244;SDS011;51846;48.692;2.382;2023-08-17T02:13:01;8.65;;;5.97;;
65244;SDS011;51846;48.692;2.382;2023-08-17T02:15:26;10.48;;;5.88;;
65244;SDS011;51846;48.692;2.382;2023-08-17T02:17:52;8.35;;;6.07;;
65244;SDS011;51846;48.692;2.382;2023-08-17T02:20:17;9.43;;;6.22;;
65244;SDS011;51846;48.692;2.382;2023-08-17T02:22:45;11.02;;;6.95;;
65244;SDS011;51846;48.692;2.382;2023-08-17T02:25:11;8.65;;;6.47;;
65244;SDS011;51846;48.692;2.382;2023-08-17T02:27:36;12.13;;;7.03;;
65244;SDS011;51846;48.692;2.382;2023-08-17T02:30:02;8.75;;;6.10;;
65244;SDS011;51846;48.692;2.382;2023-08-17T02:32:28;14.35;;;6.40;;
65244;SDS011;51846;48.692;2.382;2023-08-17T02:34:54;10.70;;;6.70;;
65244;SDS011;51846;48.692;2.382;2023-08-17T02:37:19;10.63;;;6.65;;
65244;SDS011;51846;48.692;2.382;2023-08-17T02:39:45;9.45;;;6.55;;
65244;SDS011;51846;48.692;2.382;2023-08-17T02:42:10;10.65;;;6.85;;
65244;SDS011;51846;48.692;2.382;2023-08-17T02:44:35;10.32;;;6.47;;
65244;SDS011;51846;48.692;2.382;2023-08-17T02:47:01;11.50;;;6.57;;
65244;SDS011;51846;48.692;2.382;2023-08-17T02:49:26;14.75;;;7.07;;
65244;SDS011;51846;48.692;2.382;2023-08-17T02:51:51;11.70;;;6.90;;
65244;SDS011;51846;48.692;2.382;2023-08-17T02:54:17;12.18;;;7.80;;
65244;SDS011;51846;48.692;2.382;2023-08-17T02:56:42;12.38;;;7.65;;
65244;SDS011;51846;48.692;2.382;2023-08-17T02:59:07;10.38;;;6.97;;
65244;SDS011;51846;48.692;2.382;2023-08-17T03:01:33;14.15;;;7.20;;
65244;SDS011;51846;48.692;2.382;2023-08-17T03:03:58;11.65;;;7.75;;
65244;SDS011;51846;48.692;2.382;2023-08-17T03:06:23;11.57;;;7.20;;
65244;SDS011;51846;48.692;2.382;2023-08-17T03:08:49;12.10;;;7.90;;
65244;SDS011;51846;48.692;2.382;2023-08-17T03:11:14;11.55;;;7.90;;
65244;SDS011;51846;48.692;2.382;2023-08-17T03:13:39;12.75;;;8.40;;
65244;SDS011;51846;48.692;2.382;2023-08-17T03:16:05;13.35;;;7.97;;
65244;SDS011;51846;48.692;2.382;2023-08-17T03:18:30;13.27;;;8.57;;
65244;SDS011;51846;48.692;2.382;2023-08-17T03:20:55;13.07;;;8.60;;
65244;SDS011;51846;48.692;2.382;2023-08-17T03:23:21;12.40;;;8.73;;
65244;SDS011;51846;48.692;2.382;2023-08-17T03:25:50;15.90;;;8.65;;
65244;SDS011;51846;48.692;2.382;2023-08-17T03:28:16;12.20;;;9.02;;
65244;SDS011;51846;48.692;2.382;2023-08-17T03:30:42;12.07;;;8.38;;
65244;SDS011;51846;48.692;2.382;2023-08-17T03:33:07;13.80;;;9.20;;
65244;SDS011;51846;48.692;2.382;2023-08-17T03:35:33;14.57;;;9.05;;
65244;SDS011;51846;48.692;2.382;2023-08-17T03:37:59;13.77;;;8.95;;
65244;SDS011;51846;48.692;2.382;2023-08-17T03:40:24;13.73;;;8.77;;
65244;SDS011;51846;48.692;2.382;2023-08-17T03:42:50;12.68;;;9.07;;
65244;SDS011;51846;48.692;2.382;2023-08-17T03:45:15;13.98;;;9.50;;
65244;SDS011;51846;48.692;2.382;2023-08-17T03:47:40;14.18;;;9.00;;
65244;SDS011;51846;48.692;2.382;2023-08-17T03:50:06;18.05;;;10.00;;
65244;SDS011;51846;48.692;2.382;2023-08-17T03:52:32;14.10;;;9.85;;
65244;SDS011;51846;48.692;2.382;2023-08-17T03:54:57;14.75;;;10.32;;
65244;SDS011;51846;48.692;2.382;2023-08-17T03:57:22;16.80;;;10.10;;
65244;SDS011;51846;48.692;2.382;2023-08-17T03:59:48;20.55;;;10.80;;
65244;SDS011;51846;48.692;2.382;2023-08-17T04:02:13;14.65;;;9.88;;
65244;SDS011;51846;48.692;2.382;2023-08-17T04:04:38;14.88;;;10.32;;
65244;SDS011;51846;48.692;2.382;2023-08-17T04:07:04;17.52;;;10.23;;
65244;SDS011;51846;48.692;2.382;2023-08-17T04:09:31;13.40;;;9.60;;
65244;SDS011;51846;48.692;2.382;2023-08-17T04:11:58;14.40;;;9.68;;
65244;SDS011;51846;48.692;2.382;2023-08-17T04:14:24;16.90;;;10.60;;
65244;SDS011;51846;48.692;2.382;2023-08-17T04:16:49;15.05;;;10.40;;
65244;SDS011;51846;48.692;2.382;2023-08-17T04:19:14;15.13;;;10.10;;
65244;SDS011;51846;48.692;2.382;2023-08-17T04:21:40;20.58;;;9.77;;
65244;SDS011;51846;48.692;2.382;2023-08-17T04:24:05;16.65;;;9.98;;
65244;SDS011;51846;48.692;2.382;2023-08-17T04:26:31;16.10;;;10.65;;
65244;SDS011;51846;48.692;2.382;2023-08-17T04:28:56;16.90;;;10.65;;
65244;SDS011;51846;48.692;2.382;2023-08-17T04:31:21;17.17;;;10.25;;
65244;SDS011;51846;48.692;2.382;2023-08-17T04:33:47;15.85;;;10.25;;
65244;SDS011;51846;48.692;2.382;2023-08-17T04:36:12;16.42;;;10.77;;
65244;SDS011;51846;48.692;2.382;2023-08-17T04:38:38;15.80;;;10.15;;
65244;SDS011;51846;48.692;2.382;2023-08-17T04:41:03;17.05;;;10.57;;
65244;SDS011;51846;48.692;2.382;2023-08-17T04:43:28;16.67;;;10.50;;
65244;SDS011;51846;48.692;2.382;2023-08-17T04:45:54;17.75;;;10.10;;
65244;SDS011;51846;48.692;2.382;2023-08-17T04:48:19;17.40;;;10.60;;
65244;SDS011;51846;48.692;2.382;2023-08-17T04:50:45;18.33;;;10.52;;
65244;SDS011;51846;48.692;2.382;2023-08-17T04:53:10;14.93;;;10.30;;
65244;SDS011;51846;48.692;2.382;2023-08-17T04:55:36;18.13;;;10.35;;
65244;SDS011;51846;48.692;2.382;2023-08-17T04:58:01;16.73;;;10.32;;
65244;SDS011;51846;48.692;2.382;2023-08-17T05:00:26;17.52;;;10.55;;
65244;SDS011;51846;48.692;2.382;2023-08-17T05:02:55;19.52;;;10.70;;
65244;SDS011;51846;48.692;2.382;2023-08-17T05:05:21;17.05;;;10.35;;
65244;SDS011;51846;48.692;2.382;2023-08-17T05:07:46;21.30;;;10.82;;
65244;SDS011;51846;48.692;2.382;2023-08-17T05:10:12;19.40;;;10.48;;
65244;SDS011;51846;48.692;2.382;2023-08-17T05:12:37;19.20;;;10.27;;
65244;SDS011;51846;48.692;2.382;2023-08-17T05:15:03;18.40;;;10.60;;
65244;SDS011;51846;48.692;2.382;2023-08-17T05:17:28;17.85;;;10.48;;
65244;SDS011;51846;48.692;2.382;2023-08-17T05:19:54;17.70;;;10.90;;
65244;SDS011;51846;48.692;2.382;2023-08-17T05:22:19;17.23;;;10.18;;
65244;SDS011;51846;48.692;2.382;2023-08-17T05:24:44;20.02;;;11.45;;
65244;SDS011;51846;48.692;2.382;2023-08-17T05:27:10;18.50;;;10.98;;
65244;SDS011;51846;48.692;2.382;2023-08-17T05:29:35;17.02;;;10.43;;
65244;SDS011;51846;48.692;2.382;2023-08-17T05:32:00;16.92;;;10.68;;
65244;SDS011;51846;48.692;2.382;2023-08-17T05:34:26;17.80;;;10.68;;
65244;SDS011;51846;48.692;2.382;2023-08-17T05:36:51;20.52;;;11.35;;
65244;SDS011;51846;48.692;2.382;2023-08-17T05:39:16;21.35;;;11.18;;
65244;SDS011;51846;48.692;2.382;2023-08-17T05:41:42;18.20;;;10.50;;
65244;SDS011;51846;48.692;2.382;2023-08-17T05:44:07;17.77;;;11.07;;
65244;SDS011;51846;48.692;2.382;2023-08-17T05:46:33;21.50;;;11.07;;
65244;SDS011;51846;48.692;2.382;2023-08-17T05:49:00;24.63;;;11.85;;
65244;SDS011;51846;48.692;2.382;2023-08-17T05:51:25;30.45;;;12.00;;
65244;SDS011;51846;48.692;2.382;2023-08-17T05:53:51;22.35;;;11.88;;
65244;SDS011;51846;48.692;2.382;2023-08-17T05:56:16;30.17;;;11.98;;
65244;SDS011;51846;48.692;2.382;2023-08-17T05:58:41;35.33;;;12.23;;
65244;SDS011;51846;48.692;2.382;2023-08-17T06:01:07;33.95;;;12.50;;
65244;SDS011;51846;48.692;2.382;2023-08-17T06:03:34;25.45;;;12.68;;
65244;SDS011;51846;48.692;2.382;2023-08-17T06:06:00;31.67;;;12.77;;
65244;SDS011;51846;48.692;2.382;2023-08-17T06:08:26;31.27;;;12.35;;
65244;SDS011;51846;48.692;2.382;2023-08-17T06:10:52;29.25;;;12.70;;
65244;SDS011;51846;48.692;2.382;2023-08-17T06:13:17;28.67;;;13.25;;
65244;SDS011;51846;48.692;2.382;2023-08-17T06:15:43;23.08;;;13.40;;
65244;SDS011;51846;48.692;2.382;2023-08-17T06:18:08;33.08;;;13.57;;
65244;SDS011;51846;48.692;2.382;2023-08-17T06:20:33;34.05;;;12.88;;
65244;SDS011;51846;48.692;2.382;2023-08-17T06:22:59;28.00;;;12.55;;
65244;SDS011;51846;48.692;2.382;2023-08-17T06:25:24;27.33;;;12.60;;
65244;SDS011;51846;48.692;2.382;2023-08-17T06:27:51;27.52;;;11.38;;
65244;SDS011;51846;48.692;2.382;2023-08-17T06:30:16;24.00;;;11.85;;
65244;SDS011;51846;48.692;2.382;2023-08-17T06:32:42;23.88;;;11.73;;
65244;SDS011;51846;48.692;2.382;2023-08-17T06:35:08;22.98;;;12.23;;
65244;SDS011;51846;48.692;2.382;2023-08-17T06:37:33;16.40;;;11.10;;
65244;SDS011;51846;48.692;2.382;2023-08-17T06:39:59;24.13;;;11.00;;
65244;SDS011;51846;48.692;2.382;2023-08-17T06:42:24;32.33;;;12.13;;
65244;SDS011;51846;48.692;2.382;2023-08-17T06:44:49;28.65;;;12.40;;
65244;SDS011;51846;48.692;2.382;2023-08-17T06:47:15;30.73;;;12.43;;
65244;SDS011;51846;48.692;2.382;2023-08-17T06:49:40;23.45;;;13.52;;
65244;SDS011;51846;48.692;2.382;2023-08-17T06:52:06;34.17;;;13.90;;
65244;SDS011;51846;48.692;2.382;2023-08-17T06:54:31;32.35;;;13.38;;
65244;SDS011;51846;48.692;2.382;2023-08-17T06:57:00;24.20;;;12.88;;
65244;SDS011;51846;48.692;2.382;2023-08-17T06:59:26;28.00;;;12.55;;
65244;SDS011;51846;48.692;2.382;2023-08-17T07:01:51;21.85;;;12.60;;
65244;SDS011;51846;48.692;2.382;2023-08-17T07:04:17;22.15;;;13.18;;
65244;SDS011;51846;48.692;2.382;2023-08-17T07:06:42;20.23;;;12.38;;
65244;SDS011;51846;48.692;2.382;2023-08-17T07:09:08;24.80;;;12.40;;
65244;SDS011;51846;48.692;2.382;2023-08-17T07:11:34;22.45;;;12.25;;
65244;SDS011;51846;48.692;2.382;2023-08-17T07:13:59;21.30;;;13.32;;
65244;SDS011;51846;48.692;2.382;2023-08-17T07:16:25;21.25;;;13.57;;
65244;SDS011;51846;48.692;2.382;2023-08-17T07:18:50;23.65;;;13.75;;
65244;SDS011;51846;48.692;2.382;2023-08-17T07:21:15;20.92;;;13.65;;
65244;SDS011;51846;48.692;2.382;2023-08-17T07:23:43;26.95;;;13.25;;
65244;SDS011;51846;48.692;2.382;2023-08-17T07:26:09;25.77;;;13.60;;
65244;SDS011;51846;48.692;2.382;2023-08-17T07:28:35;21.98;;;13.10;;
65244;SDS011;51846;48.692;2.382;2023-08-17T07:31:00;25.80;;;15.18;;
65244;SDS011;51846;48.692;2.382;2023-08-17T07:33:25;23.85;;;14.85;;
65244;SDS011;51846;48.692;2.382;2023-08-17T07:35:51;25.55;;;14.57;;
65244;SDS011;51846;48.692;2.382;2023-08-17T07:38:18;30.48;;;15.82;;
65244;SDS011;51846;48.692;2.382;2023-08-17T07:40:43;22.40;;;15.00;;
65244;SDS011;51846;48.692;2.382;2023-08-17T07:43:09;33.58;;;15.38;;
65244;SDS011;51846;48.692;2.382;2023-08-17T07:45:34;26.58;;;14.30;;
65244;SDS011;51846;48.692;2.382;2023-08-17T07:47:59;24.90;;;15.02;;
65244;SDS011;51846;48.692;2.382;2023-08-17T07:50:25;42.20;;;15.63;;
65244;SDS011;51846;48.692;2.382;2023-08-17T07:52:50;29.05;;;14.73;;
65244;SDS011;51846;48.692;2.382;2023-08-17T07:55:15;23.33;;;13.45;;
65244;SDS011;51846;48.692;2.382;2023-08-17T07:57:41;23.98;;;13.43;;
65244;SDS011;51846;48.692;2.382;2023-08-17T08:00:06;20.90;;;12.95;;
65244;SDS011;51846;48.692;2.382;2023-08-17T08:02:32;27.33;;;13.23;;
65244;SDS011;51846;48.692;2.382;2023-08-17T08:04:58;26.10;;;14.35;;
65244;SDS011;51846;48.692;2.382;2023-08-17T08:07:23;24.92;;;13.30;;
65244;SDS011;51846;48.692;2.382;2023-08-17T08:09:48;24.02;;;13.90;;
65244;SDS011;51846;48.692;2.382;2023-08-17T08:12:14;25.35;;;14.07;;
65244;SDS011;51846;48.692;2.382;2023-08-17T08:14:39;25.73;;;13.27;;
65244;SDS011;51846;48.692;2.382;2023-08-17T08:17:04;22.63;;;13.18;;
65244;SDS011;51846;48.692;2.382;2023-08-17T08:19:30;21.75;;;13.15;;
65244;SDS011;51846;48.692;2.382;2023-08-17T08:21:57;18.60;;;12.13;;
65244;SDS011;51846;48.692;2.382;2023-08-17T08:24:23;24.55;;;12.80;;
65244;SDS011;51846;48.692;2.382;2023-08-17T08:26:48;22.40;;;12.88;;
65244;SDS011;51846;48.692;2.382;2023-08-17T08:29:13;21.02;;;12.20;;
65244;SDS011;51846;48.692;2.382;2023-08-17T08:31:39;25.85;;;12.35;;
65244;SDS011;51846;48.692;2.382;2023-08-17T08:34:05;20.33;;;12.05;;
65244;SDS011;51846;48.692;2.382;2023-08-17T08:36:30;18.98;;;12.43;;
65244;SDS011;51846;48.692;2.382;2023-08-17T08:38:55;19.05;;;12.43;;
65244;SDS011;51846;48.692;2.382;2023-08-17T08:41:21;27.55;;;11.70;;
65244;SDS011;51846;48.692;2.382;2023-08-17T08:43:47;22.65;;;11.55;;
65244;SDS011;51846;48.692;2.382;2023-08-17T08:46:13;21.30;;;13.02;;
65244;SDS011;51846;48.692;2.382;2023-08-17T08:48:41;29.17;;;12.82;;
65244;SDS011;51846;48.692;2.382;2023-08-17T08:51:07;22.58;;;12.07;;
65244;SDS011;51846;48.692;2.382;2023-08-17T08:53:37;37.78;;;12.43;;
65244;SDS011;51846;48.692;2.382;2023-08-17T08:56:03;27.35;;;12.73;;
65244;SDS011;51846;48.692;2.382;2023-08-17T08:58:29;26.00;;;12.68;;
65244;SDS011;51846;48.692;2.382;2023-08-17T09:00:57;22.05;;;12.20;;
65244;SDS011;51846;48.692;2.382;2023-08-17T09:03:23;22.95;;;12.38;;
65244;SDS011;51846;48.692;2.382;2023-08-17T09:05:50;24.90;;;12.32;;
65244;SDS011;51846;48.692;2.382;2023-08-17T09:08:20;20.63;;;11.40;;
65244;SDS011;51846;48.692;2.382;2023-08-17T09:10:47;28.67;;;11.95;;
65244;SDS011;51846;48.692;2.382;2023-08-17T09:13:13;18.25;;;11.63;;
65244;SDS011;51846;48.692;2.382;2023-08-17T09:15:39;17.05;;;11.35;;
65244;SDS011;51846;48.692;2.382;2023-08-17T09:18:07;17.50;;;11.10;;
65244;SDS011;51846;48.692;2.382;2023-08-17T09:20:36;16.95;;;11.48;;
65244;SDS011;51846;48.692;2.382;2023-08-17T09:23:04;19.88;;;11.02;;
65244;SDS011;51846;48.692;2.382;2023-08-17T09:25:30;17.10;;;10.77;;
65244;SDS011;51846;48.692;2.382;2023-08-17T09:27:57;17.38;;;11.20;;
65244;SDS011;51846;48.692;2.382;2023-08-17T09:30:22;16.90;;;10.73;;
65244;SDS011;51846;48.692;2.382;2023-08-17T09:32:48;17.00;;;11.18;;
65244;SDS011;51846;48.692;2.382;2023-08-17T09:35:14;19.30;;;11.50;;
65244;SDS011;51846;48.692;2.382;2023-08-17T09:37:40;16.83;;;10.52;;
65244;SDS011;51846;48.692;2.382;2023-08-17T09:40:05;14.52;;;9.68;;
65244;SDS011;51846;48.692;2.382;2023-08-17T09:42:34;15.85;;;10.13;;
65244;SDS011;51846;48.692;2.382;2023-08-17T09:45:00;14.43;;;10.00;;
65244;SDS011;51846;48.692;2.382;2023-08-17T09:47:26;18.85;;;10.80;;
65244;SDS011;51846;48.692;2.382;2023-08-17T09:49:52;14.57;;;9.80;;
65244;SDS011;51846;48.692;2.382;2023-08-17T09:52:21;14.77;;;9.43;;
65244;SDS011;51846;48.692;2.382;2023-08-17T09:54:47;19.60;;;10.20;;
65244;SDS011;51846;48.692;2.382;2023-08-17T09:57:13;13.48;;;9.30;;
65244;SDS011;51846;48.692;2.382;2023-08-17T09:59:39;14.43;;;8.93;;
65244;SDS011;51846;48.692;2.382;2023-08-17T10:02:14;13.90;;;8.90;;
65244;SDS011;51846;48.692;2.382;2023-08-17T10:04:43;16.33;;;8.98;;
65244;SDS011;51846;48.692;2.382;2023-08-17T10:07:11;13.27;;;8.25;;
65244;SDS011;51846;48.692;2.382;2023-08-17T10:09:39;13.75;;;8.20;;
65244;SDS011;51846;48.692;2.382;2023-08-17T10:12:12;12.73;;;8.23;;
65244;SDS011;51846;48.692;2.382;2023-08-17T10:14:43;12.52;;;8.18;;
65244;SDS011;51846;48.692;2.382;2023-08-17T10:17:15;12.43;;;8.27;;
65244;SDS011;51846;48.692;2.382;2023-08-17T10:19:59;14.85;;;8.07;;
65244;SDS011;51846;48.692;2.382;2023-08-17T10:25:29;10.73;;;7.72;;
65244;SDS011;51846;48.692;2.382;2023-08-17T10:27:54;12.07;;;8.40;;
65244;SDS011;51846;48.692;2.382;2023-08-17T10:30:20;13.30;;;8.07;;
65244;SDS011;51846;48.692;2.382;2023-08-17T10:32:45;12.35;;;8.00;;
65244;SDS011;51846;48.692;2.382;2023-08-17T10:35:12;12.85;;;8.13;;
65244;SDS011;51846;48.692;2.382;2023-08-17T10:48:27;10.63;;;8.13;;
65244;SDS011;51846;48.692;2.382;2023-08-17T10:51:00;12.35;;;7.70;;
65244;SDS011;51846;48.692;2.382;2023-08-17T10:53:27;13.38;;;8.50;;
65244;SDS011;51846;48.692;2.382;2023-08-17T10:55:59;14.40;;;8.10;;
65244;SDS011;51846;48.692;2.382;2023-08-17T10:58:24;15.73;;;7.97;;
65244;SDS011;51846;48.692;2.382;2023-08-17T11:00:53;13.70;;;8.18;;
65244;SDS011;51846;48.692;2.382;2023-08-17T11:03:20;21.00;;;8.18;;
65244;SDS011;51846;48.692;2.382;2023-08-17T11:05:53;15.02;;;8.20;;
65244;SDS011;51846;48.692;2.382;2023-08-17T11:08:28;11.20;;;7.95;;
65244;SDS011;51846;48.692;2.382;2023-08-17T11:11:02;11.45;;;7.75;;
65244;SDS011;51846;48.692;2.382;2023-08-17T11:13:35;9.10;;;6.93;;
65244;SDS011;51846;48.692;2.382;2023-08-17T11:16:03;9.30;;;7.07;;
65244;SDS011;51846;48.692;2.382;2023-08-17T11:18:30;11.85;;;7.22;;
65244;SDS011;51846;48.692;2.382;2023-08-17T11:20:56;16.63;;;7.22;;
65244;SDS011;51846;48.692;2.382;2023-08-17T11:23:27;17.92;;;7.38;;
65244;SDS011;51846;48.692;2.382;2023-08-17T11:25:54;23.10;;;7.85;;
65244;SDS011;51846;48.692;2.382;2023-08-17T11:28:19;11.18;;;7.32;;
65244;SDS011;51846;48.692;2.382;2023-08-17T11:30:46;8.80;;;7.07;;
65244;SDS011;51846;48.692;2.382;2023-08-17T11:33:25;11.05;;;6.90;;
65244;SDS011;51846;48.692;2.382;2023-08-17T11:35:53;9.95;;;7.50;;
65244;SDS011;51846;48.692;2.382;2023-08-17T11:38:19;12.20;;;7.30;;
65244;SDS011;51846;48.692;2.382;2023-08-17T11:40:44;11.00;;;7.57;;
65244;SDS011;51846;48.692;2.382;2023-08-17T11:43:10;12.75;;;7.18;;
65244;SDS011;51846;48.692;2.382;2023-08-17T11:45:36;11.48;;;7.28;;
65244;SDS011;51846;48.692;2.382;2023-08-17T11:48:01;12.48;;;7.40;;
65244;SDS011;51846;48.692;2.382;2023-08-17T11:50:28;9.98;;;7.38;;
65244;SDS011;51846;48.692;2.382;2023-08-17T11:52:53;10.00;;;7.18;;
65244;SDS011;51846;48.692;2.382;2023-08-17T11:55:19;12.27;;;6.80;;
65244;SDS011;51846;48.692;2.382;2023-08-17T11:57:45;10.10;;;7.03;;
65244;SDS011;51846;48.692;2.382;2023-08-17T12:00:16;10.52;;;7.10;;
65244;SDS011;51846;48.692;2.382;2023-08-17T12:02:42;10.55;;;6.90;;
65244;SDS011;51846;48.692;2.382;2023-08-17T12:05:08;13.25;;;7.05;;
65244;SDS011;51846;48.692;2.382;2023-08-17T12:07:34;11.13;;;7.50;;
65244;SDS011;51846;48.692;2.382;2023-08-17T12:10:02;9.30;;;7.20;;
65244;SDS011;51846;48.692;2.382;2023-08-17T12:12:28;10.93;;;7.68;;
65244;SDS011;51846;48.692;2.382;2023-08-17T12:14:54;10.15;;;7.22;;
65244;SDS011;51846;48.692;2.382;2023-08-17T12:17:20;10.68;;;7.45;;
65244;SDS011;51846;48.692;2.382;2023-08-17T12:19:49;9.75;;;7.15;;
65244;SDS011;51846;48.692;2.382;2023-08-17T12:22:16;9.38;;;6.95;;
65244;SDS011;51846;48.692;2.382;2023-08-17T12:24:41;9.90;;;6.93;;
65244;SDS011;51846;48.692;2.382;2023-08-17T12:27:07;9.40;;;7.47;;
65244;SDS011;51846;48.692;2.382;2023-08-17T12:29:33;10.32;;;6.90;;
65244;SDS011;51846;48.692;2.382;2023-08-17T12:31:58;10.82;;;7.35;;
65244;SDS011;51846;48.692;2.382;2023-08-17T12:34:26;9.65;;;6.78;;
65244;SDS011;51846;48.692;2.382;2023-08-17T12:36:51;10.80;;;7.70;;
65244;SDS011;51846;48.692;2.382;2023-08-17T12:39:16;8.77;;;7.35;;
65244;SDS011;51846;48.692;2.382;2023-08-17T12:41:42;10.68;;;6.93;;
65244;SDS011;51846;48.692;2.382;2023-08-17T12:44:10;9.43;;;6.80;;
65244;SDS011;51846;48.692;2.382;2023-08-17T12:46:39;10.43;;;6.75;;
65244;SDS011;51846;48.692;2.382;2023-08-17T12:49:05;10.30;;;6.82;;
65244;SDS011;51846;48.692;2.382;2023-08-17T12:51:30;8.65;;;6.45;;
65244;SDS011;51846;48.692;2.382;2023-08-17T12:53:56;8.63;;;6.25;;
65244;SDS011;51846;48.692;2.382;2023-08-17T12:56:21;9.98;;;6.90;;
65244;SDS011;51846;48.692;2.382;2023-08-17T12:58:46;13.13;;;6.82;;
65244;SDS011;51846;48.692;2.382;2023-08-17T13:01:12;10.68;;;6.45;;
65244;SDS011;51846;48.692;2.382;2023-08-17T13:03:38;10.55;;;6.35;;
65244;SDS011;51846;48.692;2.382;2023-08-17T13:06:04;7.60;;;5.72;;
65244;SDS011;51846;48.692;2.382;2023-08-17T13:08:30;8.40;;;5.93;;
65244;SDS011;51846;48.692;2.382;2023-08-17T13:10:55;14.10;;;6.47;;
65244;SDS011;51846;48.692;2.382;2023-08-17T13:13:20;10.60;;;6.00;;
65244;SDS011;51846;48.692;2.382;2023-08-17T13:15:46;8.32;;;5.85;;
65244;SDS011;51846;48.692;2.382;2023-08-17T13:18:11;12.38;;;6.05;;
65244;SDS011;51846;48.692;2.382;2023-08-17T13:20:37;8.23;;;5.78;;
65244;SDS011;51846;48.692;2.382;2023-08-17T13:23:03;8.48;;;5.68;;
65244;SDS011;51846;48.692;2.382;2023-08-17T13:25:29;10.68;;;5.65;;
65244;SDS011;51846;48.692;2.382;2023-08-17T13:27:54;7.97;;;5.60;;
65244;SDS011;51846;48.692;2.382;2023-08-17T13:30:19;7.22;;;5.57;;
65244;SDS011;51846;48.692;2.382;2023-08-17T13:32:45;7.90;;;5.68;;
65244;SDS011;51846;48.692;2.382;2023-08-17T13:35:10;8.95;;;5.88;;
65244;SDS011;51846;48.692;2.382;2023-08-17T13:37:36;7.97;;;5.90;;
65244;SDS011;51846;48.692;2.382;2023-08-17T13:40:02;10.73;;;5.90;;
65244;SDS011;51846;48.692;2.382;2023-08-17T13:42:28;8.52;;;5.28;;
65244;SDS011;51846;48.692;2.382;2023-08-17T13:44:53;8.93;;;6.28;;
65244;SDS011;51846;48.692;2.382;2023-08-17T13:47:18;6.97;;;5.60;;
65244;SDS011;51846;48.692;2.382;2023-08-17T13:49:44;8.32;;;6.28;;
65244;SDS011;51846;48.692;2.382;2023-08-17T13:52:10;8.90;;;6.10;;
65244;SDS011;51846;48.692;2.382;2023-08-17T13:54:35;8.30;;;6.57;;
65244;SDS011;51846;48.692;2.382;2023-08-17T13:57:01;9.98;;;5.95;;
65244;SDS011;51846;48.692;2.382;2023-08-17T13:59:26;7.65;;;6.00;;
65244;SDS011;51846;48.692;2.382;2023-08-17T14:01:51;10.02;;;6.30;;
65244;SDS011;51846;48.692;2.382;2023-08-17T14:04:17;13.55;;;6.10;;
65244;SDS011;51846;48.692;2.382;2023-08-17T14:06:43;9.85;;;6.25;;
65244;SDS011;51846;48.692;2.382;2023-08-17T14:09:08;8.45;;;6.18;;
65244;SDS011;51846;48.692;2.382;2023-08-17T14:11:34;9.98;;;6.57;;
65244;SDS011;51846;48.692;2.382;2023-08-17T14:13:59;9.45;;;6.13;;
65244;SDS011;51846;48.692;2.382;2023-08-17T14:16:25;8.23;;;6.00;;
65244;SDS011;51846;48.692;2.382;2023-08-17T14:18:50;10.55;;;6.40;;
65244;SDS011;51846;48.692;2.382;2023-08-17T14:21:15;8.43;;;6.50;;
65244;SDS011;51846;48.692;2.382;2023-08-17T14:23:41;8.10;;;6.50;;
65244;SDS011;51846;48.692;2.382;2023-08-17T14:26:06;10.30;;;6.55;;
65244;SDS011;51846;48.692;2.382;2023-08-17T14:28:32;9.38;;;6.32;;
65244;SDS011;51846;48.692;2.382;2023-08-17T14:30:57;7.47;;;5.97;;
65244;SDS011;51846;48.692;2.382;2023-08-17T14:33:22;7.60;;;5.78;;
65244;SDS011;51846;48.692;2.382;2023-08-17T14:35:48;8.32;;;6.00;;
65244;SDS011;51846;48.692;2.382;2023-08-17T14:38:13;8.80;;;6.40;;
65244;SDS011;51846;48.692;2.382;2023-08-17T14:40:43;7.38;;;6.45;;
65244;SDS011;51846;48.692;2.382;2023-08-17T14:43:12;8.07;;;6.28;;
65244;SDS011;51846;48.692;2.382;2023-08-17T14:45:40;8.95;;;6.10;;
65244;SDS011;51846;48.692;2.382;2023-08-17T14:48:06;8.50;;;5.95;;
65244;SDS011;51846;48.692;2.382;2023-08-17T14:50:32;12.05;;;6.50;;